Terminal Aerodrome Forecast
Issued by NWS Columbia, SC

Home | Current Version | Previous Version | Text Only | Print | Product List | Glossary On
Versions: 1 2 3 4 5 6 7 8 9 10 11 12 13 14 15 16 17 18
000
FTUS42 KCAE 272300
TAFCAE
TAF
KCAE 272320Z 2800/2824 VRB04KT P6SM SCT150
     FM280400 VRB03KT P6SM OVC100
     FM281000 VRB03KT 5SM -RA BR SCT012 OVC025
     FM281500 22005KT P6SM VCSH SCT008 OVC015=

USA.gov is the U.S. government's official web portal to all federal, state and local government web resources and services.